Time;durP1;ratioP1;P1;durP2;ratioP2;P2;SDS_P1;SDS_P2;PMS_P1;PMS_P2;Temp;Humidity;BMP_temperature;BMP_pressure;BME280_temperature;BME280_humidity;BME280_pressure;Samples;Min_cycle;Max_cycle;Signal;HPM_P1;HPM_P2
2021/05/12 00:02:00;;;;;;;0.40;0.40;;;;;;;;;;5008889;28;20025;-76
2021/05/12 00:04:25;;;;;;;0.50;0.50;;;;;;;;;;4990034;28;20530;-76
2021/05/12 00:06:50;;;;;;;0.57;0.57;;;;;;;;;;5008512;28;20057;-76
2021/05/12 00:09:15;;;;;;;0.57;0.57;;;;;;;;;;4990687;28;20022;-76
2021/05/12 00:11:41;;;;;;;0.50;0.50;;;;;;;;;;4982085;28;20122;-76
2021/05/12 00:14:06;;;;;;;0.60;0.60;;;;;;;;;;4991662;28;20471;-76
2021/05/12 00:16:31;;;;;;;0.50;0.50;;;;;;;;;;5010882;28;20018;-76
2021/05/12 00:18:57;;;;;;;0.50;0.50;;;;;;;;;;4991293;28;20431;-76
2021/05/12 00:21:32;;;;;;;0.60;0.60;;;;;;;;;;5011127;28;20036;-76
2021/05/12 00:24:00;;;;;;;0.60;0.60;;;;;;;;;;4979374;28;20212;-76
2021/05/12 00:26:41;;;;;;;0.60;0.60;;;;;;;;;;4963110;28;604451;-76
2021/05/12 00:29:09;;;;;;;0.60;0.60;;;;;;;;;;4993860;28;20017;-76
2021/05/12 00:31:35;;;;;;;0.52;0.52;;;;;;;;;;4991639;28;20022;-76
2021/05/12 00:34:00;;;;;;;0.55;0.55;;;;;;;;;;4992888;28;20052;-75
2021/05/12 00:36:28;;;;;;;0.52;0.52;;;;;;;;;;5010625;28;20064;-76
2021/05/12 00:38:56;;;;;;;0.60;0.60;;;;;;;;;;4980943;28;20463;-75
2021/05/12 00:41:21;;;;;;;0.60;0.60;;;;;;;;;;4990098;28;20387;-76
2021/05/12 00:43:47;;;;;;;0.60;0.60;;;;;;;;;;4991613;28;20797;-75
2021/05/12 00:46:12;;;;;;;0.50;0.50;;;;;;;;;;4999797;28;20017;-74
2021/05/12 00:48:39;;;;;;;0.60;0.60;;;;;;;;;;5008502;28;20471;-75
2021/05/12 00:51:04;;;;;;;0.55;0.55;;;;;;;;;;5010559;28;20024;-76
2021/05/12 00:53:30;;;;;;;0.50;0.50;;;;;;;;;;4989022;28;20030;-75
2021/05/12 00:55:55;;;;;;;0.60;0.60;;;;;;;;;;4987832;28;20302;-76
2021/05/12 00:58:23;;;;;;;0.85;0.50;;;;;;;;;;5016855;28;20813;-75
2021/05/12 01:00:48;;;;;;;0.57;0.57;;;;;;;;;;4992658;28;20475;-75
2021/05/12 01:03:13;;;;;;;0.50;0.50;;;;;;;;;;5009739;28;20502;-75
2021/05/12 01:05:51;;;;;;;0.60;0.60;;;;;;;;;;4982132;28;20034;-75
2021/05/12 01:08:17;;;;;;;0.60;0.60;;;;;;;;;;4981961;28;20026;-75
2021/05/12 01:10:42;;;;;;;0.80;0.80;;;;;;;;;;5009694;28;20049;-75
2021/05/12 01:13:13;;;;;;;0.70;0.70;;;;;;;;;;4992626;28;20507;-75
2021/05/12 01:15:39;;;;;;;0.60;0.60;;;;;;;;;;5009958;28;20018;-75
2021/05/12 01:18:12;;;;;;;0.77;0.70;;;;;;;;;;5010310;28;20077;-75
2021/05/12 01:20:46;;;;;;;0.60;0.60;;;;;;;;;;4991162;28;20030;-75
2021/05/12 01:23:11;;;;;;;0.70;0.70;;;;;;;;;;4994106;28;20026;-75
2021/05/12 01:25:37;;;;;;;0.70;0.70;;;;;;;;;;5009634;28;20045;-75
2021/05/12 01:28:02;;;;;;;0.52;0.52;;;;;;;;;;4990354;28;20025;-75
2021/05/12 01:30:29;;;;;;;0.70;0.70;;;;;;;;;;4991401;28;20028;-74
2021/05/12 01:32:59;;;;;;;0.57;0.57;;;;;;;;;;4991495;28;20026;-73
2021/05/12 01:35:24;;;;;;;0.50;0.50;;;;;;;;;;4990006;28;20034;-74
2021/05/12 01:37:49;;;;;;;0.60;0.60;;;;;;;;;;4991278;28;20072;-76
2021/05/12 01:40:15;;;;;;;0.50;0.50;;;;;;;;;;5007654;28;20025;-75
2021/05/12 01:42:40;;;;;;;0.55;0.55;;;;;;;;;;5009291;28;20053;-75
2021/05/12 01:45:09;;;;;;;0.52;0.52;;;;;;;;;;5008117;28;20037;-75
2021/05/12 01:47:35;;;;;;;0.60;0.60;;;;;;;;;;4998681;28;20033;-75
2021/05/12 01:50:05;;;;;;;0.60;0.60;;;;;;;;;;5017707;28;20022;-75
2021/05/12 01:52:30;;;;;;;0.70;0.70;;;;;;;;;;4990491;28;20076;-75
2021/05/12 01:54:55;;;;;;;0.70;0.70;;;;;;;;;;4973251;28;20066;-76
2021/05/12 01:57:20;;;;;;;0.60;0.60;;;;;;;;;;4999115;28;20067;-75
2021/05/12 01:59:46;;;;;;;0.73;0.73;;;;;;;;;;5009280;28;20101;-75
2021/05/12 02:02:11;;;;;;;0.60;0.60;;;;;;;;;;4992939;28;20113;-75
2021/05/12 02:04:42;;;;;;;0.70;0.70;;;;;;;;;;4989753;28;20091;-75
2021/05/12 02:07:07;;;;;;;0.50;0.50;;;;;;;;;;4990246;28;20026;-75
2021/05/12 02:09:37;;;;;;;0.75;0.75;;;;;;;;;;5007622;28;20033;-75
2021/05/12 02:12:06;;;;;;;1.05;0.70;;;;;;;;;;4990630;28;20025;-76
2021/05/12 02:14:31;;;;;;;0.70;0.70;;;;;;;;;;5021115;28;20395;-76
2021/05/12 02:16:56;;;;;;;0.70;0.70;;;;;;;;;;5015668;28;20052;-76
2021/05/12 02:19:22;;;;;;;0.60;0.60;;;;;;;;;;5017043;28;20034;-75
2021/05/12 02:21:47;;;;;;;0.63;0.63;;;;;;;;;;4985037;28;20030;-76
2021/05/12 02:24:12;;;;;;;0.70;0.70;;;;;;;;;;4998872;28;20052;-76
2021/05/12 02:26:37;;;;;;;0.68;0.68;;;;;;;;;;5008198;28;20138;-76
2021/05/12 02:29:03;;;;;;;0.60;0.60;;;;;;;;;;4991980;28;20369;-75
2021/05/12 02:31:28;;;;;;;0.60;0.60;;;;;;;;;;4990844;28;20030;-76
2021/05/12 02:33:53;;;;;;;0.70;0.70;;;;;;;;;;4989744;28;20037;-75
2021/05/12 02:36:19;;;;;;;0.80;0.80;;;;;;;;;;5007764;28;20021;-75
2021/05/12 02:38:44;;;;;;;0.70;0.70;;;;;;;;;;4991406;28;20037;-75
2021/05/12 02:41:09;;;;;;;0.93;0.90;;;;;;;;;;5008538;28;20025;-75
2021/05/12 02:43:34;;;;;;;0.80;0.80;;;;;;;;;;4973588;28;20084;-75
2021/05/12 02:46:00;;;;;;;0.77;0.60;;;;;;;;;;4997252;28;20022;-76
2021/05/12 02:48:27;;;;;;;0.60;0.60;;;;;;;;;;5008241;28;20030;-75
2021/05/12 02:50:53;;;;;;;0.60;0.60;;;;;;;;;;4983520;28;20239;-75
2021/05/12 02:53:20;;;;;;;0.63;0.63;;;;;;;;;;5004607;28;20422;-75
2021/05/12 02:55:45;;;;;;;0.70;0.70;;;;;;;;;;5005849;28;20485;-75
2021/05/12 02:58:13;;;;;;;0.88;0.88;;;;;;;;;;4989498;28;20119;-75
2021/05/12 03:00:38;;;;;;;;;;;;;;;;;;4972578;28;20030;-75
2021/05/12 03:03:04;;;;;;;0.80;0.80;;;;;;;;;;4976686;28;19995;-75
2021/05/12 03:05:30;;;;;;;0.82;0.82;;;;;;;;;;4988324;28;20113;-75
2021/05/12 03:07:56;;;;;;;0.70;0.70;;;;;;;;;;4990024;28;20456;-75
2021/05/12 03:10:24;;;;;;;0.85;0.85;;;;;;;;;;4991395;28;20534;-75
2021/05/12 03:12:50;;;;;;;0.80;0.80;;;;;;;;;;5006674;28;20018;-75
2021/05/12 03:15:17;;;;;;;0.70;0.70;;;;;;;;;;4990883;28;20036;-75
2021/05/12 03:17:42;;;;;;;0.90;0.90;;;;;;;;;;5021661;28;20040;-75
2021/05/12 03:20:08;;;;;;;0.93;0.90;;;;;;;;;;5004194;28;20025;-75
2021/05/12 03:22:35;;;;;;;0.80;0.80;;;;;;;;;;5008074;28;20030;-75
2021/05/12 03:25:00;;;;;;;;;;;;;;;;;;4989615;28;20072;-75
2021/05/12 03:27:26;;;;;;;0.87;0.87;;;;;;;;;;4997660;28;19957;-75
2021/05/12 03:29:51;;;;;;;0.80;0.80;;;;;;;;;;5008306;28;20641;-75
2021/05/12 03:32:16;;;;;;;0.80;0.80;;;;;;;;;;5007939;28;20110;-75
2021/05/12 03:34:44;;;;;;;0.70;0.70;;;;;;;;;;4984250;28;20076;-75
2021/05/12 03:37:11;;;;;;;0.98;0.90;;;;;;;;;;5009465;28;20026;-75
2021/05/12 03:39:37;;;;;;;0.77;0.77;;;;;;;;;;5008477;28;20030;-75
2021/05/12 03:42:02;;;;;;;0.80;0.80;;;;;;;;;;5008420;28;20033;-75
2021/05/12 03:44:27;;;;;;;0.90;0.90;;;;;;;;;;5006373;28;20026;-75
2021/05/12 03:46:52;;;;;;;1.27;0.90;;;;;;;;;;5007567;28;20355;-75
2021/05/12 03:49:18;;;;;;;0.90;0.90;;;;;;;;;;5006654;28;20531;-75
2021/05/12 03:51:43;;;;;;;1.05;1.00;;;;;;;;;;5007364;28;20022;-75
2021/05/12 03:54:08;;;;;;;1.02;1.00;;;;;;;;;;4975293;28;20036;-75
2021/05/12 03:56:33;;;;;;;1.10;1.00;;;;;;;;;;4993949;28;20026;-77
2021/05/12 03:58:59;;;;;;;0.90;0.90;;;;;;;;;;4992445;28;20041;-75
2021/05/12 04:01:24;;;;;;;0.80;0.80;;;;;;;;;;5010358;28;20021;-75
2021/05/12 04:03:49;;;;;;;2.05;1.15;;;;;;;;;;4987421;28;20037;-76
2021/05/12 04:06:14;;;;;;;0.90;0.90;;;;;;;;;;4989526;28;20025;-75
2021/05/12 04:08:40;;;;;;;0.90;0.90;;;;;;;;;;5009890;28;20029;-75
2021/05/12 04:11:07;;;;;;;0.95;0.90;;;;;;;;;;4978718;28;20026;-75
2021/05/12 04:13:32;;;;;;;1.02;0.93;;;;;;;;;;5006967;28;20013;-74
2021/05/12 04:15:58;;;;;;;1.17;1.08;;;;;;;;;;4993696;28;20092;-74
2021/05/12 04:18:27;;;;;;;1.50;1.20;;;;;;;;;;5009969;28;20840;-75
2021/05/12 04:20:52;;;;;;;1.00;1.00;;;;;;;;;;4983694;28;20423;-75
2021/05/12 04:23:17;;;;;;;1.00;1.00;;;;;;;;;;5008463;28;20030;-75
2021/05/12 04:25:45;;;;;;;1.30;1.10;;;;;;;;;;5011273;28;20052;-75
2021/05/12 04:28:10;;;;;;;1.48;1.10;;;;;;;;;;5010448;28;20037;-75
2021/05/12 04:30:35;;;;;;;1.00;1.00;;;;;;;;;;5010646;28;20030;-75
2021/05/12 04:33:01;;;;;;;1.13;1.02;;;;;;;;;;5012935;28;20025;-75
2021/05/12 04:35:27;;;;;;;1.45;0.93;;;;;;;;;;5010962;28;20436;-75
2021/05/12 04:37:57;;;;;;;1.02;1.00;;;;;;;;;;4993029;28;20057;-75
2021/05/12 04:40:22;;;;;;;1.00;1.00;;;;;;;;;;4988112;28;20496;-75
2021/05/12 04:42:48;;;;;;;1.00;1.00;;;;;;;;;;5003244;28;20037;-75
2021/05/12 04:45:15;;;;;;;1.33;1.17;;;;;;;;;;4992165;28;20116;-75
2021/05/12 04:47:40;;;;;;;1.25;1.15;;;;;;;;;;4988377;28;20494;-75
2021/05/12 04:50:07;;;;;;;1.40;1.30;;;;;;;;;;5010692;28;20496;-75
2021/05/12 04:52:32;;;;;;;1.33;1.10;;;;;;;;;;5009455;28;20149;-76
2021/05/12 04:54:57;;;;;;;1.30;1.20;;;;;;;;;;4989678;28;20140;-76
2021/05/12 04:57:22;;;;;;;1.17;1.13;;;;;;;;;;5003434;28;20108;-76
2021/05/12 04:59:48;;;;;;;0.95;0.95;;;;;;;;;;5008206;28;20032;-76
2021/05/12 05:02:14;;;;;;;1.20;1.10;;;;;;;;;;4991832;28;20057;-75
2021/05/12 05:04:40;;;;;;;1.20;1.10;;;;;;;;;;4991998;28;20123;-76
2021/05/12 05:07:05;;;;;;;1.23;1.13;;;;;;;;;;4988463;28;20160;-75
2021/05/12 05:09:31;;;;;;;1.27;1.13;;;;;;;;;;4980991;28;20117;-75
2021/05/12 05:11:56;;;;;;;1.30;1.20;;;;;;;;;;5006034;28;20018;-75
2021/05/12 05:14:22;;;;;;;1.42;1.20;;;;;;;;;;4982322;28;20029;-76
2021/05/12 05:16:49;;;;;;;1.40;1.30;;;;;;;;;;4993172;28;20040;-76
2021/05/12 05:19:14;;;;;;;;;;;;;;;;;;4985231;28;20464;-76
2021/05/12 05:21:40;;;;;;;1.67;1.20;;;;;;;;;;4973471;28;19905;-75
2021/05/12 05:24:06;;;;;;;1.92;1.23;;;;;;;;;;4991311;28;20018;-75
2021/05/12 05:26:34;;;;;;;1.20;1.10;;;;;;;;;;4992108;28;20399;-74
2021/05/12 05:28:59;;;;;;;1.25;1.15;;;;;;;;;;4978787;28;20026;-74
2021/05/12 05:31:24;;;;;;;1.95;1.33;;;;;;;;;;5008559;28;20506;-74
2021/05/12 05:33:49;;;;;;;1.27;1.13;;;;;;;;;;5001250;28;20036;-75
2021/05/12 05:36:15;;;;;;;1.55;1.20;;;;;;;;;;5013317;28;20022;-75
2021/05/12 05:38:40;;;;;;;1.30;1.20;;;;;;;;;;4991795;28;20116;-75
2021/05/12 05:41:05;;;;;;;1.20;1.10;;;;;;;;;;4986536;28;20090;-77
2021/05/12 05:43:30;;;;;;;1.75;1.20;;;;;;;;;;4995999;28;20021;-77
2021/05/12 05:45:56;;;;;;;1.20;1.08;;;;;;;;;;4991475;28;20052;-76
2021/05/12 05:48:21;;;;;;;1.52;1.10;;;;;;;;;;4991746;28;20038;-75
2021/05/12 05:50:47;;;;;;;1.20;1.10;;;;;;;;;;4987395;28;20102;-75
2021/05/12 05:53:16;;;;;;;1.20;1.10;;;;;;;;;;5009679;28;20022;-74
2021/05/12 05:55:41;;;;;;;1.00;1.00;;;;;;;;;;5004660;28;20021;-74
2021/05/12 05:58:07;;;;;;;1.17;1.10;;;;;;;;;;5010378;28;20372;-74
2021/05/12 06:00:32;;;;;;;0.93;0.93;;;;;;;;;;5009965;28;20517;-74
2021/05/12 06:02:59;;;;;;;1.20;1.10;;;;;;;;;;4991734;28;20057;-74
2021/05/12 06:05:25;;;;;;;;;;;;;;;;;;5009935;28;20483;-74
2021/05/12 06:07:50;;;;;;;1.20;1.10;;;;;;;;;;5010074;28;20375;-74
2021/05/12 06:10:15;;;;;;;1.17;1.08;;;;;;;;;;4992371;28;20033;-75
2021/05/12 06:12:40;;;;;;;1.30;1.20;;;;;;;;;;5009725;28;20471;-75
2021/05/12 06:15:06;;;;;;;1.10;1.00;;;;;;;;;;4991998;28;20025;-74
2021/05/12 06:17:32;;;;;;;1.10;1.00;;;;;;;;;;4992109;28;20116;-74
2021/05/12 06:19:57;;;;;;;1.43;1.10;;;;;;;;;;5009641;28;20026;-75
2021/05/12 06:22:23;;;;;;;1.13;1.00;;;;;;;;;;5009098;28;20251;-72
2021/05/12 06:24:48;;;;;;;1.20;1.10;;;;;;;;;;4982714;28;20023;-75
2021/05/12 06:27:13;;;;;;;1.00;1.00;;;;;;;;;;4994917;28;20052;-74
2021/05/12 06:29:39;;;;;;;1.20;1.10;;;;;;;;;;5007358;28;20097;-74
2021/05/12 06:32:07;;;;;;;0.90;0.90;;;;;;;;;;5009503;28;20084;-74
2021/05/12 06:34:34;;;;;;;1.83;1.13;;;;;;;;;;5008803;28;20067;-74
2021/05/12 06:37:02;;;;;;;1.40;0.90;;;;;;;;;;5001270;28;20075;-74
2021/05/12 06:39:28;;;;;;;1.23;1.05;;;;;;;;;;5002811;28;20034;-75
2021/05/12 06:41:53;;;;;;;2.78;1.33;;;;;;;;;;4997488;28;20022;-70
2021/05/12 06:44:20;;;;;;;1.27;1.10;;;;;;;;;;4999237;28;20033;-69
2021/05/12 06:46:45;;;;;;;2.05;1.20;;;;;;;;;;5000094;28;20021;-69
2021/05/12 06:49:10;;;;;;;1.35;1.10;;;;;;;;;;5002531;28;20021;-70
2021/05/12 06:51:35;;;;;;;1.10;0.95;;;;;;;;;;4989101;28;20400;-70
2021/05/12 06:54:01;;;;;;;1.40;1.13;;;;;;;;;;5000592;28;20036;-70
2021/05/12 06:56:26;;;;;;;0.90;0.90;;;;;;;;;;5000954;28;20022;-69
2021/05/12 06:58:51;;;;;;;1.08;0.98;;;;;;;;;;5004123;28;20309;-70
2021/05/12 07:01:16;;;;;;;1.63;1.02;;;;;;;;;;5003236;28;20476;-78
2021/05/12 07:03:41;;;;;;;0.90;0.90;;;;;;;;;;4997884;28;20018;-78
2021/05/12 07:06:07;;;;;;;0.95;0.90;;;;;;;;;;5007789;28;20029;-80
2021/05/12 07:08:37;;;;;;;1.30;1.08;;;;;;;;;;4992667;28;20022;-79
2021/05/12 07:11:03;;;;;;;0.80;0.80;;;;;;;;;;4992806;28;20022;-78
2021/05/12 07:13:30;;;;;;;0.93;0.88;;;;;;;;;;4992508;28;20369;-80
2021/05/12 07:15:56;;;;;;;1.00;1.00;;;;;;;;;;4989841;28;20026;-80
2021/05/12 07:18:21;;;;;;;1.23;1.13;;;;;;;;;;4993363;28;20031;-79
2021/05/12 07:20:46;;;;;;;1.23;0.90;;;;;;;;;;5004512;28;20406;-78
2021/05/12 07:23:23;;;;;;;1.17;1.08;;;;;;;;;;5009349;28;20018;-80
2021/05/12 07:25:49;;;;;;;1.40;1.08;;;;;;;;;;4997654;28;20017;-79
2021/05/12 07:28:14;;;;;;;1.00;1.00;;;;;;;;;;4993076;28;20171;-79
2021/05/12 07:30:40;;;;;;;1.08;1.08;;;;;;;;;;4993071;28;20479;-78
2021/05/12 07:33:05;;;;;;;0.98;0.98;;;;;;;;;;5010811;28;20363;-80
2021/05/12 07:35:31;;;;;;;1.05;1.05;;;;;;;;;;4995406;28;20467;-78
2021/05/12 07:37:58;;;;;;;1.35;1.10;;;;;;;;;;4995943;28;20057;-78
2021/05/12 07:40:24;;;;;;;;;;;;;;;;;;4997520;28;20140;-81
2021/05/12 07:42:50;;;;;;;2.03;1.20;;;;;;;;;;4988778;28;19952;-80
2021/05/12 07:45:15;;;;;;;0.90;0.90;;;;;;;;;;5000557;28;20053;-79
2021/05/12 07:47:41;;;;;;;1.40;1.10;;;;;;;;;;5001784;28;20482;-77
2021/05/12 07:50:07;;;;;;;1.20;1.10;;;;;;;;;;4992304;28;20022;-77
2021/05/12 07:52:33;;;;;;;1.00;1.00;;;;;;;;;;4989330;28;20491;-78
2021/05/12 07:54:58;;;;;;;0.93;0.93;;;;;;;;;;4993040;28;20026;-82
2021/05/12 07:57:23;;;;;;;1.48;1.20;;;;;;;;;;5013572;28;20109;-79
2021/05/12 07:59:49;;;;;;;1.10;1.05;;;;;;;;;;4996105;28;20030;-77
2021/05/12 08:02:14;;;;;;;1.30;1.13;;;;;;;;;;4994821;28;20026;-77
2021/05/12 08:04:40;;;;;;;1.25;1.02;;;;;;;;;;5012223;28;20029;-77
2021/05/12 08:07:05;;;;;;;1.13;1.00;;;;;;;;;;4999425;28;20061;-77
2021/05/12 08:09:30;;;;;;;1.05;0.80;;;;;;;;;;4999015;28;20022;-77
2021/05/12 08:11:56;;;;;;;1.27;1.10;;;;;;;;;;4997648;28;20386;-78
2021/05/12 08:14:21;;;;;;;1.20;1.10;;;;;;;;;;4982058;28;20022;-77
2021/05/12 08:16:46;;;;;;;0.90;0.90;;;;;;;;;;4990535;28;20446;-76
2021/05/12 08:19:12;;;;;;;0.82;0.82;;;;;;;;;;5002397;28;20072;-77
2021/05/12 08:21:38;;;;;;;1.02;0.90;;;;;;;;;;5014736;28;20030;-77
2021/05/12 08:24:03;;;;;;;0.90;0.90;;;;;;;;;;4993818;28;20056;-79
2021/05/12 08:26:30;;;;;;;0.88;0.88;;;;;;;;;;5007195;28;20021;-78
2021/05/12 08:29:01;;;;;;;0.80;0.80;;;;;;;;;;5022183;28;20021;-78
2021/05/12 08:31:27;;;;;;;1.13;1.00;;;;;;;;;;4995853;28;20476;-78
2021/05/12 08:33:53;;;;;;;0.95;0.90;;;;;;;;;;5020940;28;20118;-77
2021/05/12 08:36:21;;;;;;;1.00;0.90;;;;;;;;;;4991982;28;20113;-77
2021/05/12 08:38:46;;;;;;;0.98;0.93;;;;;;;;;;5015895;28;20025;-78
2021/05/12 08:41:17;;;;;;;0.82;0.82;;;;;;;;;;5013273;28;20101;-78
2021/05/12 08:43:43;;;;;;;0.82;0.82;;;;;;;;;;5003062;28;20045;-75
2021/05/12 08:46:09;;;;;;;0.88;0.88;;;;;;;;;;4991443;28;20064;-77
2021/05/12 08:48:35;;;;;;;1.08;1.00;;;;;;;;;;5013218;28;20037;-77
2021/05/12 08:51:01;;;;;;;1.40;1.20;;;;;;;;;;4988398;28;20420;-77
2021/05/12 08:53:26;;;;;;;0.75;0.75;;;;;;;;;;4985034;28;20029;-79
2021/05/12 08:55:52;;;;;;;0.95;0.90;;;;;;;;;;5019265;28;20380;-75
2021/05/12 08:58:17;;;;;;;1.50;1.10;;;;;;;;;;4985124;28;20054;-76
2021/05/12 09:00:42;;;;;;;1.08;0.95;;;;;;;;;;5008255;28;20030;-76
2021/05/12 09:03:08;;;;;;;0.93;0.88;;;;;;;;;;5009665;28;20060;-75
2021/05/12 09:05:33;;;;;;;0.85;0.85;;;;;;;;;;5014473;28;20545;-76
2021/05/12 09:07:58;;;;;;;0.80;0.80;;;;;;;;;;4994350;28;20033;-77
2021/05/12 09:10:24;;;;;;;0.90;0.90;;;;;;;;;;4981456;28;20447;-76
2021/05/12 09:12:54;;;;;;;0.73;0.73;;;;;;;;;;4989972;28;20034;-77
2021/05/12 09:15:21;;;;;;;0.88;0.88;;;;;;;;;;4991684;28;20034;-76
2021/05/12 09:17:48;;;;;;;0.73;0.73;;;;;;;;;;5014593;28;20112;-78
2021/05/12 09:20:19;;;;;;;1.00;0.97;;;;;;;;;;4993952;28;20528;-76
2021/05/12 09:22:45;;;;;;;0.60;0.60;;;;;;;;;;4980446;28;20030;-76
2021/05/12 09:25:17;;;;;;;0.80;0.80;;;;;;;;;;5005368;28;20478;-77
2021/05/12 09:27:51;;;;;;;1.02;0.90;;;;;;;;;;4999535;28;20053;-77
2021/05/12 09:30:23;;;;;;;0.98;0.88;;;;;;;;;;4988774;28;20022;-78
2021/05/12 09:32:49;;;;;;;0.80;0.80;;;;;;;;;;4994290;28;20037;-77
2021/05/12 09:35:15;;;;;;;0.77;0.77;;;;;;;;;;4998265;28;20392;-77
2021/05/12 09:37:42;;;;;;;1.92;1.00;;;;;;;;;;4997356;28;20030;-76
2021/05/12 09:40:11;;;;;;;0.70;0.70;;;;;;;;;;4992352;28;20025;-77
2021/05/12 09:42:38;;;;;;;1.02;0.98;;;;;;;;;;5011988;28;20724;-77
2021/05/12 09:45:12;;;;;;;0.77;0.77;;;;;;;;;;5008666;28;20014;-76
2021/05/12 09:47:41;;;;;;;1.02;0.95;;;;;;;;;;5003075;28;20197;-76
2021/05/12 09:50:15;;;;;;;0.90;0.90;;;;;;;;;;5005067;28;20029;-75
2021/05/12 09:52:40;;;;;;;0.70;0.70;;;;;;;;;;4993995;28;20029;-77
2021/05/12 09:55:06;;;;;;;0.90;0.90;;;;;;;;;;4992963;28;20025;-77
2021/05/12 09:57:31;;;;;;;0.80;0.80;;;;;;;;;;5023874;28;20032;-78
2021/05/12 09:59:57;;;;;;;0.90;0.85;;;;;;;;;;4996288;28;20022;-78
2021/05/12 10:02:22;;;;;;;1.13;0.90;;;;;;;;;;5000772;28;20034;-77
2021/05/12 10:04:49;;;;;;;1.10;1.00;;;;;;;;;;5004705;28;20395;-77
2021/05/12 10:07:25;;;;;;;0.70;0.70;;;;;;;;;;4983220;28;20112;-77
2021/05/12 10:09:51;;;;;;;0.88;0.88;;;;;;;;;;4986999;28;20022;-76
2021/05/12 10:12:18;;;;;;;0.80;0.80;;;;;;;;;;4988050;28;20392;-76
2021/05/12 10:14:46;;;;;;;0.97;0.90;;;;;;;;;;5008274;28;20070;-76
2021/05/12 10:17:13;;;;;;;1.42;0.90;;;;;;;;;;4989454;28;20117;-76
2021/05/12 10:19:38;;;;;;;0.70;0.70;;;;;;;;;;5004747;28;20025;-76
2021/05/12 10:22:05;;;;;;;0.73;0.73;;;;;;;;;;4994498;28;20022;-77
2021/05/12 10:24:31;;;;;;;0.87;0.80;;;;;;;;;;4999746;28;20123;-77
2021/05/12 10:26:57;;;;;;;0.70;0.70;;;;;;;;;;5016480;28;20065;-76
2021/05/12 10:29:23;;;;;;;0.80;0.80;;;;;;;;;;5015530;28;20101;-76
2021/05/12 10:31:50;;;;;;;0.93;0.73;;;;;;;;;;4993508;28;20136;-77
2021/05/12 10:34:17;;;;;;;0.88;0.73;;;;;;;;;;4990261;28;20027;-77
2021/05/12 10:36:42;;;;;;;0.70;0.70;;;;;;;;;;5002551;28;20044;-77
2021/05/12 10:39:08;;;;;;;1.17;0.90;;;;;;;;;;5008821;28;20025;-77
2021/05/12 10:41:47;;;;;;;0.68;0.68;;;;;;;;;;4994805;28;20034;-77
2021/05/12 10:46:45;;;;;;;0.95;0.80;;;;;;;;;;4995287;28;20110;-76
2021/05/12 10:49:10;;;;;;;0.65;0.65;;;;;;;;;;5008867;28;20392;-76
2021/05/12 10:51:45;;;;;;;0.60;0.60;;;;;;;;;;4980315;28;20323;-76
2021/05/12 10:54:11;;;;;;;0.75;0.75;;;;;;;;;;4981951;28;20053;-76
2021/05/12 10:56:37;;;;;;;0.80;0.80;;;;;;;;;;5005189;28;20140;-76
2021/05/12 10:59:05;;;;;;;0.60;0.60;;;;;;;;;;4986918;28;20022;-76
2021/05/12 11:01:35;;;;;;;0.60;0.60;;;;;;;;;;5009460;28;20038;-77
2021/05/12 11:04:00;;;;;;;0.60;0.60;;;;;;;;;;5004207;28;20037;-77
2021/05/12 11:06:45;;;;;;;0.75;0.57;;;;;;;;;;4989097;28;20064;-77
2021/05/12 11:09:15;;;;;;;0.70;0.70;;;;;;;;;;5002254;28;20432;-78
2021/05/12 11:11:43;;;;;;;0.60;0.60;;;;;;;;;;4983746;28;20044;-77
2021/05/12 11:14:21;;;;;;;0.60;0.60;;;;;;;;;;4991541;28;20030;-77
2021/05/12 11:16:59;;;;;;;0.80;0.80;;;;;;;;;;4994454;28;20036;-78
2021/05/12 11:19:39;;;;;;;0.60;0.60;;;;;;;;;;4995623;28;20034;-75
2021/05/12 11:22:23;;;;;;;0.63;0.63;;;;;;;;;;5005006;28;20041;-75
2021/05/12 11:24:51;;;;;;;0.63;0.60;;;;;;;;;;4988929;28;20050;-75
2021/05/12 11:32:38;;;;;;;0.63;0.63;;;;;;;;;;4993531;28;20084;-75
2021/05/12 11:35:05;;;;;;;0.80;0.80;;;;;;;;;;5010387;28;20017;-76
2021/05/12 11:37:33;;;;;;;0.77;0.77;;;;;;;;;;5006128;28;20022;-77
2021/05/12 11:39:59;;;;;;;0.52;0.52;;;;;;;;;;5001191;28;20393;-77
2021/05/12 11:42:26;;;;;;;0.75;0.75;;;;;;;;;;4992185;28;20036;-77
2021/05/12 11:44:51;;;;;;;;;;;;;;;;;;4996562;28;20030;-76
2021/05/12 11:47:27;;;;;;;0.50;0.50;;;;;;;;;;5009490;28;19932;-78
2021/05/12 11:49:52;;;;;;;0.60;0.60;;;;;;;;;;4993949;28;20371;-78
2021/05/12 11:52:25;;;;;;;0.60;0.60;;;;;;;;;;5012324;28;20583;-78
2021/05/12 11:54:51;;;;;;;0.63;0.60;;;;;;;;;;4991420;28;20018;-78
2021/05/12 11:57:16;;;;;;;0.63;0.63;;;;;;;;;;5002526;28;20018;-78
2021/05/12 11:59:43;;;;;;;0.50;0.50;;;;;;;;;;5011672;28;20025;-77
2021/05/12 12:02:13;;;;;;;0.75;0.60;;;;;;;;;;5008857;28;20032;-79
2021/05/12 12:04:45;;;;;;;0.70;0.70;;;;;;;;;;4993053;28;20590;-78
2021/05/12 12:07:11;;;;;;;0.63;0.63;;;;;;;;;;4991726;28;20025;-77
2021/05/12 12:09:36;;;;;;;2.08;0.57;;;;;;;;;;4995358;28;20032;-77
2021/05/12 12:12:02;;;;;;;0.50;0.50;;;;;;;;;;4991705;28;20071;-77
2021/05/12 12:14:31;;;;;;;0.52;0.52;;;;;;;;;;4992483;28;20022;-76
2021/05/12 12:16:56;;;;;;;0.50;0.50;;;;;;;;;;5014960;28;20029;-76
2021/05/12 12:19:24;;;;;;;0.60;0.60;;;;;;;;;;5012440;28;20404;-76
2021/05/12 12:21:52;;;;;;;0.50;0.50;;;;;;;;;;4992923;28;20022;-76
2021/05/12 12:24:18;;;;;;;;;;;;;;;;;;4994159;28;20022;-76
2021/05/12 12:26:46;;;;;;;0.60;0.60;;;;;;;;;;4997144;28;20372;-77
2021/05/12 12:29:11;;;;;;;0.68;0.68;;;;;;;;;;4995444;28;20065;-74
2021/05/12 12:31:41;;;;;;;0.60;0.60;;;;;;;;;;5019375;28;20049;-76
2021/05/12 12:34:17;;;;;;;0.38;0.38;;;;;;;;;;5008562;28;20077;-77
2021/05/12 12:36:49;;;;;;;0.65;0.57;;;;;;;;;;4999538;28;20022;-77
2021/05/12 12:39:15;;;;;;;0.43;0.43;;;;;;;;;;5015454;28;20033;-74
2021/05/12 12:41:41;;;;;;;0.45;0.45;;;;;;;;;;5016126;28;20018;-76
2021/05/12 12:44:06;;;;;;;0.50;0.50;;;;;;;;;;5025805;28;20553;-76
2021/05/12 12:46:32;;;;;;;0.35;0.35;;;;;;;;;;5031897;28;20065;-76
2021/05/12 12:48:57;;;;;;;0.40;0.40;;;;;;;;;;5013817;28;20026;-76
2021/05/12 12:51:35;;;;;;;0.50;0.50;;;;;;;;;;5021649;28;20026;-75
2021/05/12 12:54:00;;;;;;;0.52;0.52;;;;;;;;;;5013048;28;20033;-77
2021/05/12 12:56:25;;;;;;;0.65;0.65;;;;;;;;;;5030648;28;20101;-75
2021/05/12 12:59:10;;;;;;;0.40;0.40;;;;;;;;;;5021771;28;20029;-75
2021/05/12 13:01:36;;;;;;;0.50;0.50;;;;;;;;;;5013970;28;20054;-77
2021/05/12 13:04:17;;;;;;;0.60;0.60;;;;;;;;;;5010942;28;20065;-76
2021/05/12 13:06:42;;;;;;;0.40;0.40;;;;;;;;;;5011680;28;20546;-77
2021/05/12 13:09:24;;;;;;;0.50;0.50;;;;;;;;;;5011017;28;20112;-77
2021/05/12 13:11:49;;;;;;;0.52;0.52;;;;;;;;;;5008649;28;20030;-77
2021/05/12 13:14:17;;;;;;;0.38;0.38;;;;;;;;;;4995106;28;20376;-76
2021/05/12 13:16:43;;;;;;;0.55;0.55;;;;;;;;;;5012857;28;20419;-76
2021/05/12 13:19:08;;;;;;;0.43;0.40;;;;;;;;;;5010980;28;20533;-76
2021/05/12 13:21:37;;;;;;;0.50;0.50;;;;;;;;;;5010613;28;20395;-75
2021/05/12 13:24:09;;;;;;;0.40;0.40;;;;;;;;;;4998614;28;20467;-76
2021/05/12 13:26:36;;;;;;;0.50;0.50;;;;;;;;;;4995093;28;20052;-76
2021/05/12 13:29:03;;;;;;;0.60;0.60;;;;;;;;;;4993262;28;20041;-75
2021/05/12 13:31:29;;;;;;;0.60;0.60;;;;;;;;;;5008273;28;20018;-76
2021/05/12 13:33:55;;;;;;;0.80;0.80;;;;;;;;;;4995402;28;20010;-77
2021/05/12 13:36:20;;;;;;;0.60;0.60;;;;;;;;;;5008500;28;20073;-77
2021/05/12 13:38:45;;;;;;;0.45;0.45;;;;;;;;;;4979900;28;20030;-76
2021/05/12 13:41:10;;;;;;;0.40;0.40;;;;;;;;;;5007112;28;20392;-77
2021/05/12 13:43:36;;;;;;;0.50;0.50;;;;;;;;;;4990841;28;20112;-77
2021/05/12 13:46:01;;;;;;;0.60;0.60;;;;;;;;;;4992926;28;20040;-77
2021/05/12 13:48:26;;;;;;;0.47;0.47;;;;;;;;;;4993717;28;20511;-77
2021/05/12 13:50:52;;;;;;;0.40;0.40;;;;;;;;;;5011417;28;20033;-77
2021/05/12 13:53:38;;;;;;;0.57;0.57;;;;;;;;;;4993006;28;20022;-77
2021/05/12 14:03:49;;;;;;;0.43;0.43;;;;;;;;;;5005482;28;20033;-78
2021/05/12 14:06:20;;;;;;;0.50;0.50;;;;;;;;;;5020367;28;20459;-78
2021/05/12 14:08:48;;;;;;;0.47;0.47;;;;;;;;;;4992820;28;20022;-77
2021/05/12 14:11:13;;;;;;;;;;;;;;;;;;4995016;28;20067;-79
2021/05/12 14:13:38;;;;;;;0.60;0.60;;;;;;;;;;5008535;28;20012;-80
2021/05/12 14:18:30;;;;;;;0.60;0.60;;;;;;;;;;5007491;28;20030;-77
2021/05/12 14:20:56;;;;;;;0.50;0.50;;;;;;;;;;4992035;28;20029;-76
2021/05/12 14:23:21;;;;;;;0.52;0.52;;;;;;;;;;4999894;28;20030;-77
2021/05/12 14:25:47;;;;;;;0.50;0.50;;;;;;;;;;4994600;28;20038;-77
2021/05/12 14:28:14;;;;;;;0.60;0.60;;;;;;;;;;5003103;28;20112;-78
2021/05/12 14:30:45;;;;;;;0.50;0.50;;;;;;;;;;5004192;28;20059;-78
2021/05/12 14:33:13;;;;;;;0.93;0.55;;;;;;;;;;4992607;28;20443;-77
2021/05/12 14:35:38;;;;;;;0.40;0.40;;;;;;;;;;4980966;28;20053;-78
2021/05/12 14:38:03;;;;;;;0.40;0.40;;;;;;;;;;5015634;28;20052;-77
2021/05/12 14:40:29;;;;;;;0.68;0.65;;;;;;;;;;5010070;28;20026;-78
2021/05/12 14:42:55;;;;;;;0.52;0.52;;;;;;;;;;4991192;28;20029;-78
2021/05/12 14:45:20;;;;;;;0.47;0.47;;;;;;;;;;5011336;28;20024;-80
2021/05/12 14:47:48;;;;;;;0.30;0.30;;;;;;;;;;4993651;28;20021;-78
2021/05/12 14:50:15;;;;;;;0.30;0.30;;;;;;;;;;5008058;28;20121;-79
2021/05/12 14:52:46;;;;;;;0.30;0.30;;;;;;;;;;4985593;28;20026;-78
2021/05/12 15:07:58;;;;;;;0.30;0.30;;;;;;;;;;5009768;28;20109;-78
2021/05/12 15:10:24;;;;;;;0.30;0.30;;;;;;;;;;4993269;28;20049;-77
2021/05/12 15:12:49;;;;;;;0.40;0.40;;;;;;;;;;4983261;28;20089;-78
2021/05/12 15:15:14;;;;;;;0.30;0.30;;;;;;;;;;4986982;28;20088;-77